Ride Results

Stockyard Hill (30-05-2010)
Ride distance: 100.0 km Elevator

Outcomes - Stockyard Hill (30-05-2010)
Division No. of Entries Retired / DNE Completed Withdrawn Ineligible V/O Percentage Completed
HW 10 7 3 - - - 100.00%
MW 19 7 10 - 1 1 89.47%
LW 10 1 8 - - 1 90.00%
JN 3 1 0 - - 2 33.33%
Totals 42 16 21 - 1 4 88.10%
Results - Stockyard Hill (30-05-2010)
No. Rider Horse Place Time Leg Speeds Total
Km/Hr
H/R bpm
Heavyweight
111 Greg May Silver Request 1 (BC) 6:45:00 15.8, 14.7, 12.7 14.81 36, 43, 46, 55 (Avg:48)
65 Carl Adamson Sundown Park Miss Jacob 2 7:15:00 14.3, 13.2, 13.3 13.79 28, 42, 45, 48 (Avg:45)
58 Dianne Tobin Dowling Mourad 3 8:24:00 11.9, 13.0, 10.4 11.90 30, 40, 40, 40 (Avg:40)
82 Jarrod Robinson Jasper Retired/DNE L2 6:35:00 11.9, 12.4 12.15 32, 42, 50 (Avg:46)
135 Tamara Atkinson Ransom Bartholemew Retired/DNE L2 6:47:00 11.8, 11.6 11.79 50, 38, 45 (Avg:41)
176 Bruce Harper Corky Retired/DNE L2 6:51:00 12.4, 10.5 11.68 36, 44, 46 (Avg:45)
754 Kristina Meskauskaite Infinite Eagle Retired/DNE L2 6:54:00 11.7, 11.3 11.59 38, 48, 51 (Avg:49)
752 Ian Tytler Whyneemah Abu Retired/DNE L2 7:21:00 11.8, 9.6 10.88 36, 52, 56 (Avg:54)
753 Dom Falcomer Swift Ambassador Retired/DNE L2 7:37:00 10.7, 10.1 10.50 34, 41, 43 (Avg:42)
751 Allison Whitney Kazoo Park Avis Retired/DNE L2 7:37:00 10.7, 10.1 10.50 38, 44, 40 (Avg:42)
Middleweight
67 John Osboldstone Jackie 1 (BC) 5:58:00 16.9, 16.6, 16.4 16.76 34, 51, 50, 53 (Avg:51)
212 Tracy John Aloha Red Domino 2 6:37:00 16.0, 13.8, 14.9 15.11 50, 43, 44, 51 (Avg:46)
141 Jackie Drayton Clovelly Park Shandara 3 7:03:00 15.2, 13.6, 12.7 14.18 34, 40, 40, 50 (Avg:43)
759 Anne Simmons Undurra Zahir Shah 4 7:05:00 15.2, 13.6, 12.4 14.12 34, 44, 45, 48 (Avg:45)
351 Steve Blackhurst Aloha Rain Dance 5 7:08:00 12.4, 19.5, 12.6 14.02 30, 39, 47, 41 (Avg:42)
181 Sharee Court Sandine Excellerator 6 7:15:00 12.4, 17.3, 13.3 13.79 34, 44, 48, 39 (Avg:43)
69 Sue Cavill Koonwarra Kavalier 7 8:25:00 12.5, 11.7, 10.6 11.88 34, 47, 48, 42 (Avg:45)
757 Bob Masters Prince Fabio 7 8:25:00 12.5, 11.7, 10.6 11.88 33, 37, 49, 43 (Avg:43)
89 Sheryl Herbert Krishlah Maleeka 9 9:40:00 10.5, 10.2, 9.9 10.34 36, 48, 46, 42 (Avg:45)
60 Leanne Wyllie Just Shakira 9 9:40:00 10.5, 10.2, 9.9 10.34 36, 45, 46, 44 (Avg:45)
758 Mark Peel Moonshine Ally Retired/DNE L2 6:05:00 13.0, 13.3 13.15 36, 34, 46 (Avg:40)
126 Wendy Riha Magic Glenn Celest Retired/DNE L2 6:37:00 11.8, 12.4 12.09 34, 48, 47 (Avg:47)
84 Kristie Taprell Castlebar Moonlight Retired/DNE L2 6:37:00 11.9, 12.3 12.09 38, 38, 38 (Avg:38)
756 Brooke White Rowallan Nara Retired/DNE L2 6:51:00 12.4, 10.5 11.68 32, 42, 47 (Avg:44)
755 Mitch Fox Sandine Manikardo Retired/DNE L2 6:54:00 11.7, 11.3 11.59 29, 38, 46 (Avg:42)
77 Trish Reeves Destined For Dubai Retired/DNE L2 7:37:00 10.7, 10.1 10.50 28, 34, 34 (Avg:34)
56 Wendy Bootle Blue Bopp Retired/DNE L2 7:45:00 11.9, 8.4 10.32 39, 46, 50 (Avg:48)
130 Jennifer Carland Musical Gully Tenor Disqualified L2 0:00:00 10.5, 8.3 - 34, 50, 52 (Avg:51)
13 Linda Tanian Castlebar Darthvader Lame L1 0:00:00 11.9 - 32, 48 (Avg:48)
Lightweight
743 Tracy-Lee Feltrin Oso Lexus 1 (BC) 6:31:00 15.8, 15.7, 13.6 15.35 32, 44, 46, 44 (Avg:44)
183 Nicky Robinson Sterling Nakeeta 2 7:06:00 13.1, 15.5, 14.6 14.08 38, 44, 53, 51 (Avg:49)
11 Rohan Stanes Shuja Bint Melika 2 7:06:00 13.1, 15.5, 14.6 14.08 27, 42, 48, 36 (Avg:42)
73 Rachael Saunders Big Charles 4 7:52:00 13.1, 13.5, 10.8 12.71 38, 44, 46, 52 (Avg:47)
91 Kim Noble Brodie 5 8:24:00 11.8, 12.9, 10.7 11.90 38, 43, 48, 48 (Avg:46)
49 Jessica Remfry Max 6 9:40:00 10.5, 10.2, 9.9 10.34 32, 46, 47, 46 (Avg:46)
61 Lois Sharam Musical Gully Carousel 7 9:41:00 10.3, 7.5, 22.2 10.33 36, 48, 47, 52 (Avg:49)
114 Helen Spencer Musical Gully Zanadu 7 9:41:00 10.3, 10.1, 10.5 10.33 34, 38, 41, 41 (Avg:40)
744 Elodie LeLabourier Castlebar Nova Retired/DNE L2 6:37:00 11.8, 12.4 12.09 33, 40, 42 (Avg:41)
742 Tanya Perry Conderosa Sovuryn Lame L1 0:00:00 10.4 - 38, 42 (Avg:42)
Junior
90 Samantha Noble Layoros Retired/DNE L2 7:37:00 10.7, 10.1 10.50 34, 38, 38 (Avg:38)
745 Tamarra Gangur T'Neesha Heart Rate L2 0:00:00 10.4, 10.1 - 40, 48, 61 (Avg:54)
748 Tegan Gillingham Sharma Lame L1 0:00:00 2.4 - 31, 0 (Avg:0)